Time;durP1;ratioP1;P1;durP2;ratioP2;P2;SDS_P1;SDS_P2;PMS_P1;PMS_P2;Temp;Humidity;BMP_temperature;BMP_pressure;BME280_temperature;BME280_humidity;BME280_pressure;Samples;Min_cycle;Max_cycle;Signal;HPM_P1;HPM_P2
2022/04/05 00:01:01;;;;;;;12.20;3.63;;;;;;;;;;5076522;28;20043;-83
2022/04/05 00:03:27;;;;;;;10.87;3.47;;;;;;;;;;5073920;28;20620;-83
2022/04/05 00:05:53;;;;;;;9.80;3.50;;;;;;;;;;5089151;28;20048;-84
2022/04/05 00:08:19;;;;;;;10.93;4.70;;;;;;;;;;5070870;28;20048;-84
2022/04/05 00:10:45;;;;;;;8.53;3.83;;;;;;;;;;5086605;28;20068;-84
2022/04/05 00:13:11;;;;;;;11.77;4.83;;;;;;;;;;5072062;28;20131;-84
2022/04/05 00:15:37;;;;;;;11.10;4.03;;;;;;;;;;5073227;28;20618;-83
2022/04/05 00:18:03;;;;;;;10.47;4.03;;;;;;;;;;5076479;28;20165;-83
2022/04/05 00:20:30;;;;;;;13.43;4.50;;;;;;;;;;5079115;28;20513;-84
2022/04/05 00:22:56;;;;;;;12.77;4.47;;;;;;;;;;5098603;28;20498;-81
2022/04/05 00:25:22;;;;;;;14.97;4.20;;;;;;;;;;5090982;28;20089;-83
2022/04/05 00:27:48;;;;;;;16.53;4.93;;;;;;;;;;5081957;28;20044;-84
2022/04/05 00:30:15;;;;;;;14.07;5.57;;;;;;;;;;5070376;28;20044;-83
2022/04/05 00:32:41;;;;;;;18.77;6.50;;;;;;;;;;5093853;28;20105;-83
2022/04/05 00:35:08;;;;;;;15.57;5.50;;;;;;;;;;5088181;28;20830;-82
2022/04/05 00:37:34;;;;;;;12.80;4.67;;;;;;;;;;5071603;28;20090;-82
2022/04/05 00:40:00;;;;;;;9.60;5.13;;;;;;;;;;5076303;28;20411;-82
2022/04/05 00:42:26;;;;;;;17.37;5.67;;;;;;;;;;5085900;28;20039;-83
2022/04/05 00:44:52;;;;;;;12.03;4.53;;;;;;;;;;5088439;28;20048;-83
2022/04/05 00:47:20;;;;;;;14.63;4.77;;;;;;;;;;5090580;28;20058;-83
2022/04/05 00:49:46;;;;;;;14.40;5.20;;;;;;;;;;5090843;28;20043;-83
2022/04/05 00:52:16;;;;;;;14.33;4.60;;;;;;;;;;5085222;28;20147;-84
2022/04/05 00:54:44;;;;;;;10.13;4.83;;;;;;;;;;5070372;28;20048;-83
2022/04/05 00:57:12;;;;;;;14.93;5.87;;;;;;;;;;5082141;28;20044;-83
2022/04/05 00:59:41;;;;;;;11.87;5.13;;;;;;;;;;5053632;28;20047;-83
2022/04/05 01:02:08;;;;;;;9.33;4.60;;;;;;;;;;5082290;28;20048;-83
2022/04/05 01:04:35;;;;;;;14.13;4.50;;;;;;;;;;5088345;28;20039;-83
2022/04/05 01:07:04;;;;;;;14.70;5.10;;;;;;;;;;5074176;28;20150;-84
2022/04/05 01:09:30;;;;;;;14.40;5.10;;;;;;;;;;5079330;28;20506;-84
2022/04/05 01:11:56;;;;;;;12.70;5.17;;;;;;;;;;5073973;28;20051;-84
2022/04/05 01:14:22;;;;;;;13.20;4.33;;;;;;;;;;5077199;28;20044;-84
2022/04/05 01:16:48;;;;;;;11.93;4.03;;;;;;;;;;5091582;28;20040;-83
2022/04/05 01:19:14;;;;;;;14.23;4.80;;;;;;;;;;5073098;28;20056;-84
2022/04/05 01:21:40;;;;;;;13.63;4.23;;;;;;;;;;5057231;28;20173;-83
2022/04/05 01:24:07;;;;;;;12.60;4.30;;;;;;;;;;5074078;28;20040;-84
2022/04/05 01:26:39;;;;;;;15.40;4.23;;;;;;;;;;5087024;28;20048;-84
2022/04/05 01:29:05;;;;;;;15.10;3.50;;;;;;;;;;5073411;28;20059;-84
2022/04/05 01:31:35;;;;;;;9.57;3.30;;;;;;;;;;5089258;28;20554;-84
2022/04/05 01:34:01;;;;;;;11.53;3.40;;;;;;;;;;5074015;28;20135;-84
2022/04/05 01:36:27;;;;;;;7.93;2.87;;;;;;;;;;5100330;28;20151;-84
2022/04/05 01:38:53;;;;;;;9.30;3.00;;;;;;;;;;5083632;28;20042;-85
2022/04/05 01:41:19;;;;;;;8.37;2.97;;;;;;;;;;5077381;28;20040;-85
2022/04/05 01:43:45;;;;;;;8.40;2.67;;;;;;;;;;5073500;28;20047;-85
2022/04/05 01:46:11;;;;;;;8.03;3.07;;;;;;;;;;5074812;28;20102;-85
2022/04/05 01:48:39;;;;;;;13.30;3.57;;;;;;;;;;5074000;28;20055;-85
2022/04/05 01:51:05;;;;;;;13.27;3.20;;;;;;;;;;5075566;28;20063;-85
2022/04/05 01:53:31;;;;;;;13.47;3.53;;;;;;;;;;5111188;28;20739;-85
2022/04/05 01:55:57;;;;;;;8.47;3.33;;;;;;;;;;5090795;28;20043;-85
2022/04/05 01:58:24;;;;;;;9.50;3.57;;;;;;;;;;5088788;28;20707;-83
2022/04/05 02:00:51;;;;;;;14.43;3.80;;;;;;;;;;5091285;28;20646;-85
2022/04/05 02:03:17;;;;;;;14.73;4.03;;;;;;;;;;5083825;28;20079;-85
2022/04/05 02:05:46;;;;;;;10.77;3.80;;;;;;;;;;5092990;28;21172;-85
2022/04/05 02:08:12;;;;;;;13.03;3.70;;;;;;;;;;5080269;28;20913;-85
2022/04/05 02:10:38;;;;;;;9.77;3.47;;;;;;;;;;5073013;28;20536;-84
2022/04/05 02:13:04;;;;;;;10.47;3.63;;;;;;;;;;5093240;28;20039;-85
2022/04/05 02:15:31;;;;;;;11.47;3.40;;;;;;;;;;5092569;28;20040;-84
2022/04/05 02:17:57;;;;;;;8.30;3.80;;;;;;;;;;5073082;28;22385;-84
2022/04/05 02:20:23;;;;;;;11.53;3.30;;;;;;;;;;5074916;28;20109;-84
2022/04/05 02:22:49;;;;;;;18.23;3.87;;;;;;;;;;5089615;28;20047;-84
2022/04/05 02:25:17;;;;;;;13.57;3.50;;;;;;;;;;5072692;28;20406;-85
2022/04/05 02:27:43;;;;;;;13.10;3.50;;;;;;;;;;5090344;28;20905;-84
2022/04/05 02:30:10;;;;;;;11.53;4.10;;;;;;;;;;5076057;28;20054;-85
2022/04/05 02:32:36;;;;;;;11.40;3.80;;;;;;;;;;5090472;28;20044;-84
2022/04/05 02:35:02;;;;;;;13.47;4.60;;;;;;;;;;5072010;28;20052;-84
2022/04/05 02:37:29;;;;;;;19.90;4.10;;;;;;;;;;5086789;28;20109;-85
2022/04/05 02:39:54;;;;;;;10.50;3.63;;;;;;;;;;5074152;28;20048;-85
2022/04/05 02:42:21;;;;;;;11.73;3.63;;;;;;;;;;5090238;28;20170;-86
2022/04/05 02:44:47;;;;;;;12.13;3.90;;;;;;;;;;5084936;28;20481;-85
2022/04/05 02:47:15;;;;;;;9.70;3.70;;;;;;;;;;5072069;28;20048;-85
2022/04/05 02:49:41;;;;;;;10.50;3.60;;;;;;;;;;5056411;28;20094;-86
2022/04/05 02:52:07;;;;;;;16.43;4.13;;;;;;;;;;5089644;28;20066;-86
2022/04/05 02:54:33;;;;;;;13.63;4.30;;;;;;;;;;5088560;28;20130;-85
2022/04/05 02:56:59;;;;;;;12.33;4.20;;;;;;;;;;5084162;28;20130;-84
2022/04/05 02:59:25;;;;;;;10.53;4.87;;;;;;;;;;5071938;28;20080;-85
2022/04/05 03:01:51;;;;;;;13.23;4.30;;;;;;;;;;5077154;28;20489;-85
2022/04/05 03:04:18;;;;;;;10.17;4.27;;;;;;;;;;5092752;28;20044;-85
2022/04/05 03:06:44;;;;;;;12.57;4.10;;;;;;;;;;5095246;28;20047;-85
2022/04/05 03:09:10;;;;;;;10.30;4.23;;;;;;;;;;5082653;28;20406;-84
2022/04/05 03:11:36;;;;;;;14.07;4.30;;;;;;;;;;5090378;28;20062;-84
2022/04/05 03:14:02;;;;;;;11.03;4.70;;;;;;;;;;5078639;28;20567;-84
2022/04/05 03:16:28;;;;;;;11.17;3.93;;;;;;;;;;5110238;28;20131;-84
2022/04/05 03:18:54;;;;;;;13.13;4.40;;;;;;;;;;5085962;28;20508;-84
2022/04/05 03:21:20;;;;;;;15.60;4.47;;;;;;;;;;5089580;28;20044;-84
2022/04/05 03:23:46;;;;;;;13.90;4.40;;;;;;;;;;5076731;28;20046;-83
2022/04/05 03:26:12;;;;;;;15.63;4.80;;;;;;;;;;5092006;28;20056;-85
2022/04/05 03:28:38;;;;;;;15.93;5.07;;;;;;;;;;5086086;28;20050;-85
2022/04/05 03:31:04;;;;;;;18.40;4.73;;;;;;;;;;5073565;28;20048;-85
2022/04/05 03:33:30;;;;;;;13.73;4.80;;;;;;;;;;5090722;28;20139;-85
2022/04/05 03:35:56;;;;;;;12.73;4.87;;;;;;;;;;5090014;28;20060;-85
2022/04/05 03:38:22;;;;;;;16.13;5.77;;;;;;;;;;5086124;28;20501;-84
2022/04/05 03:40:49;;;;;;;17.93;5.57;;;;;;;;;;5070402;28;20052;-85
2022/04/05 03:43:15;;;;;;;15.33;5.70;;;;;;;;;;5077497;28;20459;-84
2022/04/05 03:45:41;;;;;;;20.70;6.10;;;;;;;;;;5070602;28;20052;-82
2022/04/05 03:48:07;;;;;;;18.30;5.17;;;;;;;;;;5071406;28;20093;-85
2022/04/05 03:50:34;;;;;;;16.80;6.07;;;;;;;;;;5096320;28;20070;-84
2022/04/05 03:53:00;;;;;;;17.07;6.40;;;;;;;;;;5100335;28;20562;-82
2022/04/05 03:55:26;;;;;;;23.80;6.97;;;;;;;;;;5058507;28;20048;-84
2022/04/05 03:57:52;;;;;;;14.40;6.67;;;;;;;;;;5071301;28;20410;-85
2022/04/05 04:00:18;;;;;;;19.60;7.70;;;;;;;;;;5070384;28;20050;-84
2022/04/05 04:02:44;;;;;;;17.77;7.00;;;;;;;;;;5071596;28;20047;-85
2022/04/05 04:05:16;;;;;;;20.60;8.07;;;;;;;;;;5070637;28;20063;-86
2022/04/05 04:07:43;;;;;;;24.03;8.33;;;;;;;;;;5071315;28;20048;-84
2022/04/05 04:10:09;;;;;;;30.87;10.63;;;;;;;;;;5070608;28;20097;-84
2022/04/05 04:12:35;;;;;;;22.20;8.23;;;;;;;;;;5071676;28;20528;-84
2022/04/05 04:15:01;;;;;;;29.47;9.87;;;;;;;;;;5080738;28;20044;-84
2022/04/05 04:17:28;;;;;;;29.80;9.90;;;;;;;;;;5071005;28;20055;-82
2022/04/05 04:19:54;;;;;;;24.93;9.33;;;;;;;;;;5070255;28;20047;-81
2022/04/05 04:22:20;;;;;;;36.93;11.90;;;;;;;;;;5070847;28;20044;-79
2022/04/05 04:24:46;;;;;;;25.03;10.47;;;;;;;;;;5104814;28;20046;-78
2022/04/05 04:27:12;;;;;;;27.50;9.00;;;;;;;;;;5090853;28;20048;-78
2022/04/05 04:29:38;;;;;;;33.57;11.97;;;;;;;;;;5096975;28;20044;-79
2022/04/05 04:32:04;;;;;;;31.50;10.30;;;;;;;;;;5072387;28;20044;-79
2022/04/05 04:34:30;;;;;;;37.73;11.73;;;;;;;;;;5063608;28;20054;-79
2022/04/05 04:36:57;;;;;;;35.10;10.37;;;;;;;;;;5091376;28;20081;-80
2022/04/05 04:39:23;;;;;;;27.33;11.23;;;;;;;;;;5080614;28;20040;-81
2022/04/05 04:41:49;;;;;;;27.60;9.50;;;;;;;;;;5070960;28;20044;-81
2022/04/05 04:44:15;;;;;;;29.67;10.20;;;;;;;;;;5070845;28;20379;-81
2022/04/05 04:46:43;;;;;;;25.00;9.97;;;;;;;;;;5072518;28;20036;-81
2022/04/05 04:49:09;;;;;;;27.00;9.87;;;;;;;;;;5092308;28;20044;-81
2022/04/05 04:51:35;;;;;;;24.60;9.17;;;;;;;;;;5074386;28;20044;-82
2022/04/05 04:54:01;;;;;;;25.87;10.27;;;;;;;;;;5076046;28;20039;-82
2022/04/05 04:56:27;;;;;;;36.60;10.77;;;;;;;;;;5079247;28;20050;-81
2022/04/05 04:58:53;;;;;;;44.90;11.70;;;;;;;;;;5093958;28;20130;-82
2022/04/05 05:01:19;;;;;;;24.70;9.00;;;;;;;;;;5077771;28;20131;-81
2022/04/05 05:03:46;;;;;;;27.07;9.87;;;;;;;;;;5074153;28;20132;-81
2022/04/05 05:06:12;;;;;;;26.47;10.47;;;;;;;;;;5057274;28;20036;-81
2022/04/05 05:08:38;;;;;;;35.63;11.93;;;;;;;;;;5073808;28;20122;-80
2022/04/05 05:11:04;;;;;;;33.73;10.17;;;;;;;;;;5076087;28;20074;-80
2022/04/05 05:13:31;;;;;;;22.93;9.37;;;;;;;;;;5080496;28;20079;-80
2022/04/05 05:15:57;;;;;;;28.77;10.40;;;;;;;;;;5094322;28;20078;-80
2022/04/05 05:18:23;;;;;;;129.53;20.73;;;;;;;;;;5070912;28;20093;-80
2022/04/05 05:20:49;;;;;;;29.57;9.20;;;;;;;;;;5076294;28;20052;-80
2022/04/05 05:23:16;;;;;;;23.83;8.13;;;;;;;;;;5083615;28;20838;-78
2022/04/05 05:25:42;;;;;;;35.60;10.60;;;;;;;;;;5083356;28;20322;-78
2022/04/05 05:28:08;;;;;;;252.20;22.87;;;;;;;;;;5082786;28;20039;-78
2022/04/05 05:30:34;;;;;;;27.17;8.33;;;;;;;;;;5102830;28;20404;-79
2022/04/05 05:33:00;;;;;;;24.83;8.30;;;;;;;;;;5111493;28;21028;-79
2022/04/05 05:35:27;;;;;;;27.10;8.00;;;;;;;;;;5090358;28;20460;-80
2022/04/05 05:37:53;;;;;;;28.47;8.73;;;;;;;;;;5073076;28;20123;-80
2022/04/05 05:40:19;;;;;;;28.93;7.63;;;;;;;;;;5086004;28;20035;-81
2022/04/05 05:42:53;;;;;;;25.37;7.93;;;;;;;;;;5093218;28;20052;-82
2022/04/05 05:45:19;;;;;;;33.60;8.63;;;;;;;;;;5082301;28;20076;-82
2022/04/05 05:47:45;;;;;;;24.20;7.10;;;;;;;;;;5056395;28;20040;-81
2022/04/05 05:50:12;;;;;;;15.03;5.97;;;;;;;;;;5081771;28;20040;-81
2022/04/05 05:52:38;;;;;;;11.30;4.87;;;;;;;;;;5089980;28;20161;-82
2022/04/05 05:55:05;;;;;;;19.20;5.43;;;;;;;;;;5087072;28;20509;-83
2022/04/05 05:57:31;;;;;;;15.77;4.00;;;;;;;;;;5071896;28;20103;-83
2022/04/05 05:59:57;;;;;;;13.77;4.30;;;;;;;;;;5091265;28;20075;-82
2022/04/05 06:02:23;;;;;;;16.30;5.30;;;;;;;;;;5072935;28;20044;-83
2022/04/05 06:04:49;;;;;;;45.57;16.87;;;;;;;;;;5079597;28;20046;-84
2022/04/05 06:07:15;;;;;;;18.47;5.63;;;;;;;;;;5092449;28;20036;-84
2022/04/05 06:09:41;;;;;;;17.10;3.97;;;;;;;;;;5075803;28;20408;-84
2022/04/05 06:12:07;;;;;;;16.80;4.50;;;;;;;;;;5096296;28;20074;-84
2022/04/05 06:14:33;;;;;;;22.37;7.23;;;;;;;;;;5099944;28;20048;-83
2022/04/05 06:16:59;;;;;;;8.83;3.07;;;;;;;;;;5092544;28;20043;-81
2022/04/05 06:19:25;;;;;;;13.67;4.37;;;;;;;;;;5062538;28;20177;-81
2022/04/05 06:21:51;;;;;;;11.60;3.40;;;;;;;;;;5071096;28;20088;-80
2022/04/05 06:24:19;;;;;;;9.60;3.13;;;;;;;;;;5074664;28;20044;-81
2022/04/05 06:26:45;;;;;;;6.27;2.63;;;;;;;;;;5090427;28;20062;-80
2022/04/05 06:29:11;;;;;;;9.63;3.20;;;;;;;;;;5086222;28;20042;-79
2022/04/05 06:31:37;;;;;;;8.20;2.67;;;;;;;;;;5099515;28;20052;-79
2022/04/05 06:34:03;;;;;;;7.60;2.53;;;;;;;;;;5072275;28;20561;-79
2022/04/05 06:36:30;;;;;;;131.40;19.87;;;;;;;;;;5090386;28;20062;-80
2022/04/05 06:38:56;;;;;;;8.93;2.83;;;;;;;;;;5090083;28;20068;-80
2022/04/05 06:41:22;;;;;;;8.73;2.90;;;;;;;;;;5074931;28;20198;-81
2022/04/05 06:43:48;;;;;;;8.27;2.40;;;;;;;;;;5077481;28;20060;-83
2022/04/05 06:46:17;;;;;;;8.27;2.50;;;;;;;;;;5072739;28;20055;-82
2022/04/05 06:48:43;;;;;;;14.70;4.53;;;;;;;;;;5072418;28;20414;-81
2022/04/05 06:51:09;;;;;;;14.17;3.13;;;;;;;;;;5090485;28;20074;-83
2022/04/05 06:53:35;;;;;;;9.03;2.80;;;;;;;;;;5090089;28;20044;-83
2022/04/05 06:56:01;;;;;;;11.97;3.10;;;;;;;;;;5072185;28;20543;-83
2022/04/05 06:58:27;;;;;;;6.60;2.63;;;;;;;;;;5056462;28;20391;-83
2022/04/05 07:00:53;;;;;;;10.13;4.27;;;;;;;;;;5092279;28;20054;-83
2022/04/05 07:03:19;;;;;;;8.23;2.80;;;;;;;;;;5068309;28;20056;-83
2022/04/05 07:05:45;;;;;;;9.00;3.17;;;;;;;;;;5109896;28;20139;-84
2022/04/05 07:08:11;;;;;;;11.93;3.37;;;;;;;;;;5111669;28;20130;-85
2022/04/05 07:10:37;;;;;;;10.10;3.20;;;;;;;;;;5094257;28;20570;-85
2022/04/05 07:13:04;;;;;;;8.93;3.40;;;;;;;;;;5110133;28;20050;-85
2022/04/05 07:15:30;;;;;;;12.50;3.93;;;;;;;;;;5081006;28;20105;-85
2022/04/05 07:17:56;;;;;;;9.73;3.60;;;;;;;;;;5054532;28;20040;-85
2022/04/05 07:20:22;;;;;;;6.47;3.73;;;;;;;;;;5087675;28;20055;-84
2022/04/05 07:22:49;;;;;;;10.73;4.00;;;;;;;;;;5071172;28;20097;-83
2022/04/05 07:25:22;;;;;;;13.27;4.17;;;;;;;;;;5071344;28;20133;-82
2022/04/05 07:27:49;;;;;;;12.77;5.25;;;;;;;;;;5072172;28;20393;-83
2022/04/05 07:30:15;;;;;;;13.37;5.60;;;;;;;;;;5089091;28;20040;-81
2022/04/05 07:32:42;;;;;;;12.57;5.37;;;;;;;;;;5071319;28;20052;-81
2022/04/05 07:35:08;;;;;;;21.37;7.93;;;;;;;;;;5071305;28;20063;-81
2022/04/05 07:37:35;;;;;;;13.10;4.30;;;;;;;;;;5071375;28;20052;-73
2022/04/05 07:40:03;;;;;;;13.97;5.30;;;;;;;;;;5095220;28;20532;-78
2022/04/05 07:42:29;;;;;;;17.63;6.37;;;;;;;;;;5080549;28;20054;-75
2022/04/05 07:44:55;;;;;;;33.40;8.63;;;;;;;;;;5054347;28;20071;-78
2022/04/05 07:47:21;;;;;;;12.63;5.10;;;;;;;;;;5071117;28;20044;-78
2022/04/05 07:49:48;;;;;;;11.00;5.07;;;;;;;;;;5088255;28;20387;-78
2022/04/05 07:52:14;;;;;;;16.27;6.50;;;;;;;;;;5089351;28;20409;-78
2022/04/05 07:54:41;;;;;;;9.87;5.57;;;;;;;;;;5071290;28;20626;-78
2022/04/05 07:57:09;;;;;;;9.70;5.17;;;;;;;;;;5072883;28;20044;-75
2022/04/05 07:59:36;;;;;;;18.40;5.80;;;;;;;;;;5080488;28;20050;-72
2022/04/05 08:02:02;;;;;;;19.83;6.57;;;;;;;;;;5079701;28;20093;-75
2022/04/05 08:04:28;;;;;;;17.63;5.47;;;;;;;;;;5075445;28;20398;-75
2022/04/05 08:06:54;;;;;;;8.77;4.13;;;;;;;;;;5094765;28;20101;-76
2022/04/05 08:09:20;;;;;;;7.50;4.00;;;;;;;;;;5065849;28;20056;-76
2022/04/05 08:11:46;;;;;;;8.20;4.43;;;;;;;;;;5098305;28;20123;-80
2022/04/05 08:14:12;;;;;;;14.70;4.80;;;;;;;;;;5079596;28;20402;-79
2022/04/05 08:16:38;;;;;;;12.27;4.77;;;;;;;;;;5079244;28;20048;-79
2022/04/05 08:19:05;;;;;;;9.50;4.03;;;;;;;;;;5060436;28;20040;-78
2022/04/05 08:21:31;;;;;;;17.40;6.13;;;;;;;;;;5097437;28;20123;-77
2022/04/05 08:23:57;;;;;;;122.17;16.47;;;;;;;;;;5083154;28;20040;-77
2022/04/05 08:26:23;;;;;;;15.50;5.20;;;;;;;;;;5067258;28;20073;-78
2022/04/05 08:28:49;;;;;;;83.33;12.40;;;;;;;;;;5082431;28;20044;-78
2022/04/05 08:31:18;;;;;;;78.33;12.03;;;;;;;;;;5084506;28;20052;-78
2022/04/05 08:33:44;;;;;;;23.87;5.57;;;;;;;;;;5101504;28;20926;-78
2022/04/05 08:36:10;;;;;;;5.97;2.63;;;;;;;;;;5079034;28;20094;-78
2022/04/05 08:38:36;;;;;;;55.33;7.20;;;;;;;;;;5079451;28;20066;-79
2022/04/05 08:41:05;;;;;;;15.73;4.07;;;;;;;;;;5085154;28;20040;-79
2022/04/05 08:43:31;;;;;;;14.77;4.20;;;;;;;;;;5078435;28;20044;-80
2022/04/05 08:46:01;;;;;;;5.73;2.47;;;;;;;;;;5080957;28;20083;-80
2022/04/05 08:48:29;;;;;;;22.83;4.07;;;;;;;;;;5080495;28;20071;-78
2022/04/05 08:50:56;;;;;;;25.03;4.17;;;;;;;;;;5078319;28;20132;-78
2022/04/05 08:53:23;;;;;;;9.63;3.70;;;;;;;;;;5080907;28;20061;-78
2022/04/05 08:55:51;;;;;;;11.40;3.20;;;;;;;;;;5074915;28;20036;-79
2022/04/05 08:58:17;;;;;;;17.83;4.10;;;;;;;;;;5076649;28;20127;-81
2022/04/05 09:00:43;;;;;;;51.03;7.53;;;;;;;;;;5075656;28;20052;-77
2022/04/05 09:03:09;;;;;;;25.33;5.77;;;;;;;;;;5072196;28;20045;-78
2022/04/05 09:05:36;;;;;;;13.60;5.43;;;;;;;;;;5080748;28;20040;-78
2022/04/05 09:08:19;;;;;;;45.53;9.33;;;;;;;;;;5075750;28;20043;-80
2022/04/05 09:10:47;;;;;;;40.03;10.07;;;;;;;;;;5059867;28;20043;-79
2022/04/05 09:13:13;;;;;;;32.70;9.43;;;;;;;;;;5079332;28;20291;-79
2022/04/05 09:15:41;;;;;;;58.80;12.20;;;;;;;;;;5079379;28;20044;-80
2022/04/05 09:18:07;;;;;;;36.40;9.73;;;;;;;;;;5077739;28;20082;-80
2022/04/05 09:20:44;;;;;;;25.70;8.03;;;;;;;;;;5074544;28;20083;-72
2022/04/05 09:23:26;;;;;;;32.10;8.63;;;;;;;;;;5080665;28;20568;-78
2022/04/05 09:26:00;;;;;;;29.97;8.57;;;;;;;;;;5080010;28;20055;-79
2022/04/05 09:28:27;;;;;;;14.70;6.43;;;;;;;;;;5076862;28;20044;-80
2022/04/05 09:30:56;;;;;;;23.57;8.00;;;;;;;;;;5076342;28;20502;-79
2022/04/05 09:33:22;;;;;;;22.70;8.23;;;;;;;;;;5072317;28;20052;-80
2022/04/05 09:35:53;;;;;;;22.00;8.30;;;;;;;;;;5087339;28;20044;-81
2022/04/05 09:38:20;;;;;;;24.50;8.77;;;;;;;;;;5078491;28;20470;-79
2022/04/05 09:40:52;;;;;;;27.87;8.90;;;;;;;;;;5080105;28;20051;-81
2022/04/05 09:43:18;;;;;;;27.10;10.37;;;;;;;;;;5077349;28;20686;-81
2022/04/05 09:45:53;;;;;;;39.43;11.47;;;;;;;;;;5100195;28;20585;-80
2022/04/05 09:48:23;;;;;;;36.27;11.90;;;;;;;;;;5078203;28;20128;-79
2022/04/05 09:50:56;;;;;;;63.03;14.77;;;;;;;;;;5075849;28;20113;-80
2022/04/05 09:53:22;;;;;;;37.80;12.77;;;;;;;;;;5081528;28;20569;-79
2022/04/05 09:56:01;;;;;;;34.40;13.03;;;;;;;;;;5082260;28;20402;-79
2022/04/05 09:58:27;;;;;;;35.47;13.37;;;;;;;;;;5102188;28;20109;-81
2022/04/05 10:01:07;;;;;;;69.37;17.50;;;;;;;;;;5081276;28;20050;-82
2022/04/05 10:03:34;;;;;;;59.23;16.17;;;;;;;;;;5080469;28;20096;-80
2022/04/05 10:06:01;;;;;;;37.87;14.60;;;;;;;;;;5081306;28;20039;-81
2022/04/05 10:08:27;;;;;;;58.53;17.70;;;;;;;;;;5100516;28;20051;-81
2022/04/05 10:10:54;;;;;;;54.87;18.07;;;;;;;;;;5082576;28;20044;-80
2022/04/05 10:13:20;;;;;;;42.97;17.40;;;;;;;;;;5083251;28;20123;-80
2022/04/05 10:15:48;;;;;;;43.13;17.63;;;;;;;;;;5095496;28;20156;-81
2022/04/05 10:18:20;;;;;;;54.47;19.17;;;;;;;;;;5101948;28;20058;-81
2022/04/05 10:20:48;;;;;;;48.70;18.23;;;;;;;;;;5101195;28;20078;-81
2022/04/05 10:23:16;;;;;;;48.10;17.73;;;;;;;;;;5064982;28;20556;-81
2022/04/05 10:25:42;;;;;;;46.87;19.17;;;;;;;;;;5077497;28;20036;-81
2022/04/05 10:28:08;;;;;;;145.57;29.07;;;;;;;;;;5089366;28;20054;-77
2022/04/05 10:30:40;;;;;;;44.80;17.50;;;;;;;;;;5077112;28;20044;-80
2022/04/05 10:33:09;;;;;;;40.50;15.73;;;;;;;;;;5064117;28;20051;-81
2022/04/05 10:35:39;;;;;;;20.10;10.67;;;;;;;;;;5082502;28;20387;-80
2022/04/05 10:38:15;;;;;;;33.97;14.57;;;;;;;;;;5079727;28;20054;-80
2022/04/05 10:40:41;;;;;;;21.27;11.00;;;;;;;;;;5082216;28;20048;-80
2022/04/05 10:43:17;;;;;;;20.90;10.40;;;;;;;;;;5077589;28;20051;-80
2022/04/05 10:45:44;;;;;;;29.50;11.67;;;;;;;;;;5081511;28;20055;-81
2022/04/05 10:48:16;;;;;;;16.50;9.33;;;;;;;;;;5095834;28;20067;-80
2022/04/05 10:50:46;;;;;;;14.87;9.23;;;;;;;;;;5100000;28;20058;-79
2022/04/05 10:53:18;;;;;;;23.30;11.03;;;;;;;;;;5078579;28;20063;-79
2022/04/05 10:56:03;;;;;;;23.30;10.10;;;;;;;;;;5096532;28;20044;-79
2022/04/05 10:58:30;;;;;;;13.37;7.60;;;;;;;;;;5098018;28;20043;-77
2022/04/05 11:01:15;;;;;;;16.77;8.63;;;;;;;;;;5080469;28;20517;-77
2022/04/05 11:03:44;;;;;;;14.03;7.93;;;;;;;;;;5079567;28;20050;-76
2022/04/05 11:06:10;;;;;;;19.17;9.23;;;;;;;;;;5096590;28;20065;-76
2022/04/05 11:08:37;;;;;;;16.87;9.10;;;;;;;;;;5099396;28;20047;-76
2022/04/05 11:11:05;;;;;;;18.57;8.57;;;;;;;;;;5077937;28;20040;-75
2022/04/05 11:13:35;;;;;;;18.43;8.73;;;;;;;;;;5095257;28;20051;-75
2022/04/05 11:16:02;;;;;;;13.40;8.43;;;;;;;;;;5062776;28;20127;-74
2022/04/05 11:18:29;;;;;;;21.53;9.87;;;;;;;;;;5101453;28;20424;-74
2022/04/05 11:20:57;;;;;;;13.00;8.37;;;;;;;;;;5099452;28;20418;-74
2022/04/05 11:23:42;;;;;;;12.87;8.23;;;;;;;;;;5100698;28;20036;-74
2022/04/05 11:26:24;;;;;;;14.93;8.90;;;;;;;;;;5063966;28;20048;-73
2022/04/05 11:28:50;;;;;;;13.83;8.80;;;;;;;;;;5058661;28;20040;-73
2022/04/05 11:31:37;;;;;;;14.23;8.50;;;;;;;;;;5062556;28;20098;-73
2022/04/05 11:34:23;;;;;;;14.20;8.07;;;;;;;;;;5093103;28;20052;-72
2022/04/05 11:36:49;;;;;;;15.70;7.97;;;;;;;;;;5071859;28;20501;-72
2022/04/05 11:39:15;;;;;;;14.10;7.17;;;;;;;;;;5070415;28;20044;-72
2022/04/05 11:41:41;;;;;;;15.47;8.43;;;;;;;;;;5081074;28;20059;-72
2022/04/05 11:44:13;;;;;;;9.90;6.97;;;;;;;;;;5080611;28;20048;-71
2022/04/05 11:46:39;;;;;;;16.93;8.17;;;;;;;;;;5078946;28;20063;-71
2022/04/05 11:49:06;;;;;;;12.47;7.37;;;;;;;;;;5076879;28;20078;-71
2022/04/05 11:51:34;;;;;;;14.97;8.03;;;;;;;;;;5093055;28;20040;-71
2022/04/05 11:54:09;;;;;;;17.63;8.47;;;;;;;;;;5096113;28;20075;-71
2022/04/05 11:56:35;;;;;;;14.63;7.40;;;;;;;;;;5074465;28;20048;-71
2022/04/05 11:59:02;;;;;;;13.93;8.27;;;;;;;;;;5074667;28;20047;-71
2022/04/05 12:01:28;;;;;;;14.37;9.43;;;;;;;;;;5089034;28;20548;-72
2022/04/05 12:03:54;;;;;;;16.47;8.77;;;;;;;;;;5097500;28;20127;-72
2022/04/05 12:06:22;;;;;;;18.87;9.27;;;;;;;;;;5077897;28;20152;-73
2022/04/05 12:08:49;;;;;;;21.67;9.00;;;;;;;;;;5095334;28;20040;-74
2022/04/05 12:11:22;;;;;;;21.53;10.33;;;;;;;;;;5099983;28;20044;-76
2022/04/05 12:13:52;;;;;;;24.30;11.53;;;;;;;;;;5079673;28;20048;-79
2022/04/05 12:16:18;;;;;;;19.83;9.80;;;;;;;;;;5098851;28;20050;-78
2022/04/05 12:18:46;;;;;;;19.60;8.93;;;;;;;;;;5080586;28;20044;-78
2022/04/05 12:21:12;;;;;;;21.47;9.43;;;;;;;;;;5091768;28;20170;-78
2022/04/05 12:23:39;;;;;;;17.57;7.93;;;;;;;;;;5073876;28;20512;-78
2022/04/05 12:26:05;;;;;;;15.70;7.87;;;;;;;;;;5089774;28;20040;-77
2022/04/05 12:28:32;;;;;;;18.03;7.30;;;;;;;;;;5101366;28;20425;-78
2022/04/05 12:31:08;;;;;;;15.50;7.60;;;;;;;;;;5089820;28;20044;-78
2022/04/05 12:33:34;;;;;;;16.30;7.70;;;;;;;;;;5090494;28;20054;-78
2022/04/05 12:36:01;;;;;;;15.40;7.60;;;;;;;;;;5108235;28;20574;-78
2022/04/05 12:38:27;;;;;;;20.30;9.60;;;;;;;;;;5108807;28;20058;-76
2022/04/05 12:40:53;;;;;;;18.60;10.07;;;;;;;;;;5060252;28;20075;-77
2022/04/05 12:43:20;;;;;;;24.37;12.53;;;;;;;;;;5096252;28;20052;-79
2022/04/05 12:45:46;;;;;;;21.33;11.57;;;;;;;;;;5090339;28;20050;-79
2022/04/05 12:48:13;;;;;;;28.63;14.53;;;;;;;;;;5083613;28;20122;-77
2022/04/05 12:50:40;;;;;;;28.70;13.50;;;;;;;;;;5076650;28;20071;-78
2022/04/05 12:53:07;;;;;;;29.63;15.27;;;;;;;;;;5098718;28;20059;-77
2022/04/05 12:55:34;;;;;;;39.93;16.73;;;;;;;;;;5095039;28;20043;-77
2022/04/05 12:58:00;;;;;;;31.17;16.17;;;;;;;;;;5077335;28;20377;-77
2022/04/05 13:00:28;;;;;;;30.90;14.77;;;;;;;;;;5088584;28;20093;-77
2022/04/05 13:02:55;;;;;;;40.07;18.27;;;;;;;;;;5070283;28;20044;-77
2022/04/05 13:08:09;;;;;;;24.70;14.17;;;;;;;;;;5073616;28;20129;-77
2022/04/05 13:10:36;;;;;;;43.03;10.37;;;;;;;;;;5092076;28;20119;-74
2022/04/05 13:13:18;;;;;;;1.60;1.37;;;;;;;;;;5074166;28;20446;-75
2022/04/05 13:15:44;;;;;;;1.23;1.13;;;;;;;;;;5073858;28;20044;-77
2022/04/05 13:18:12;;;;;;;1.87;1.77;;;;;;;;;;5092099;28;20139;-77
2022/04/05 13:20:38;;;;;;;1.33;1.23;;;;;;;;;;5057022;28;20055;-77
2022/04/05 13:23:05;;;;;;;1.37;1.27;;;;;;;;;;5073520;28;20082;-77
2022/04/05 13:25:35;;;;;;;1.43;1.33;;;;;;;;;;5073774;28;20398;-78
2022/04/05 13:28:01;;;;;;;1.40;1.30;;;;;;;;;;5079420;28;20047;-76
2022/04/05 13:30:27;;;;;;;0.80;0.80;;;;;;;;;;5080135;28;20535;-76
2022/04/05 13:33:07;;;;;;;0.70;0.70;;;;;;;;;;5089668;28;20082;-77
2022/04/05 13:35:33;;;;;;;0.20;0.20;;;;;;;;;;5083497;28;20122;-77
2022/04/05 13:37:59;;;;;;;0.90;0.80;;;;;;;;;;5057523;28;20512;-77
2022/04/05 13:40:26;;;;;;;1.30;0.77;;;;;;;;;;5098267;28;20051;-78
2022/04/05 13:42:53;;;;;;;11.97;0.77;;;;;;;;;;5084558;28;20058;-77
2022/04/05 13:45:20;;;;;;;2.20;1.60;;;;;;;;;;5084228;28;20515;-77
2022/04/05 13:47:46;;;;;;;2.10;1.17;;;;;;;;;;5079179;28;20040;-76
2022/04/05 13:50:12;;;;;;;0.30;0.30;;;;;;;;;;5081256;28;20048;-75
2022/04/05 13:52:39;;;;;;;7.53;1.37;;;;;;;;;;5079550;28;20058;-75
2022/04/05 13:55:05;;;;;;;0.57;0.50;;;;;;;;;;5092605;28;20055;-75
2022/04/05 13:57:31;;;;;;;2.33;1.40;;;;;;;;;;5084244;28;20055;-75
2022/04/05 13:59:57;;;;;;;2.70;1.00;;;;;;;;;;5105468;28;20052;-77
2022/04/05 14:02:25;;;;;;;0.47;0.47;;;;;;;;;;5111038;28;20455;-75
2022/04/05 14:04:51;;;;;;;1.50;0.53;;;;;;;;;;5109388;28;20059;-75
2022/04/05 14:07:17;;;;;;;1.20;0.43;;;;;;;;;;5092628;28;20570;-75
2022/04/05 14:09:44;;;;;;;0.83;0.83;;;;;;;;;;5110091;28;20039;-77
2022/04/05 14:12:10;;;;;;;1.03;0.93;;;;;;;;;;5099545;28;20528;-77
2022/04/05 14:14:36;;;;;;;1.63;1.53;;;;;;;;;;5084502;28;20055;-77
2022/04/05 14:17:02;;;;;;;0.60;0.60;;;;;;;;;;5081986;28;20077;-78
2022/04/05 14:19:28;;;;;;;1.60;0.97;;;;;;;;;;5069739;28;20070;-78
2022/04/05 14:21:54;;;;;;;0.83;0.83;;;;;;;;;;5110508;28;20417;-77
2022/04/05 14:24:21;;;;;;;0.73;0.70;;;;;;;;;;5073432;28;20044;-77
2022/04/05 14:26:47;;;;;;;1.13;1.03;;;;;;;;;;5072336;28;20138;-78
2022/04/05 14:29:15;;;;;;;4.47;2.07;;;;;;;;;;5072643;28;20052;-78
2022/04/05 14:31:43;;;;;;;3.33;1.70;;;;;;;;;;5072360;28;20510;-78
2022/04/05 14:34:09;;;;;;;16.63;2.63;;;;;;;;;;5089941;28;20056;-79